Terminal Aerodrome Forecast
Issued by NWS

Home | Current Version | Previous Version | Text Only | Print | Product List | Glossary Off
Versions: 1 2 3 4 5 6 7 8 9 10 11 12 13 14 15 16 17 18 19 20 21 22 23

000
FTUS43 KGRB 261231 AAA
TAFRHI
TAF AMD
KRHI 261231Z 2613/2712 22005KT 1/4SM FG VV002
      TEMPO 2613/2615 1 1/2SM BR BKN004
     FM261500 22008G13KT 6SM BR VCSH BKN015
     FM261600 22008G15KT P6SM VCSH SCT025 BKN040
      TEMPO 2616/2620 4SM TSRA BKN025CB
     FM262100 23005KT P6SM SCT040 BKN250
     FM270400 VRB03KT 3SM BR SCT005 BKN250
      TEMPO 2708/2712 1/2SM FG OVC004=

USA.gov is the U.S. government's official web portal to all federal, state and local government web resources and services.